createdAt,value
2023-05-24T00:02:08.773Z,102211.13
2023-05-24T00:04:35.469Z,102169.19
2023-05-24T00:07:03.489Z,102157.66
2023-05-24T00:09:30.973Z,102261.00
2023-05-24T00:11:57.826Z,102255.88
2023-05-24T00:14:25.068Z,102251.75
2023-05-24T00:16:51.869Z,102244.34
2023-05-24T00:19:18.864Z,102240.72
2023-05-24T00:21:46.033Z,102208.06
2023-05-24T00:24:12.920Z,102203.47
2023-05-24T00:26:40.111Z,102218.94
2023-05-24T00:29:06.806Z,102122.06
2023-05-24T00:31:33.879Z,102147.25
2023-05-24T00:34:00.580Z,102213.19
2023-05-24T00:36:27.247Z,102218.38
2023-05-24T00:38:54.049Z,102228.03
2023-05-24T00:41:20.688Z,102176.19
2023-05-24T00:43:47.380Z,102199.84
2023-05-24T00:46:25.603Z,102220.13
2023-05-24T00:48:52.426Z,102229.00
2023-05-24T00:51:19.456Z,102174.44
2023-05-24T00:53:47.532Z,102225.38
2023-05-24T00:56:16.287Z,102199.75
2023-05-24T00:58:44.204Z,102191.34
2023-05-24T01:01:11.060Z,102196.63
2023-05-24T01:03:39.373Z,102190.34
2023-05-24T01:06:07.750Z,102186.63
2023-05-24T01:08:42.436Z,102210.63
2023-05-24T01:11:27.493Z,102049.66
2023-05-24T01:14:39.444Z,102209.03
2023-05-24T01:17:53.009Z,102209.75
2023-05-24T01:20:20.919Z,102203.41
2023-05-24T01:23:19.279Z,102204.16
2023-05-24T01:26:08.944Z,102030.19
2023-05-24T01:28:36.429Z,102190.00
2023-05-24T01:31:04.304Z,102171.69
2023-05-24T01:33:32.065Z,102188.50
2023-05-24T01:35:58.782Z,102170.34
2023-05-24T01:38:25.480Z,102197.13
2023-05-24T01:41:01.176Z,102213.00
2023-05-24T01:44:00.949Z,102184.00
2023-05-24T01:46:37.864Z,102214.66
2023-05-24T01:49:10.768Z,102210.03
2023-05-24T01:51:44.270Z,102199.97
2023-05-24T01:54:13.396Z,102191.72
2023-05-24T01:56:43.981Z,102213.69
2023-05-24T01:59:12.901Z,102192.63
2023-05-24T02:01:40.103Z,102189.00
2023-05-24T02:04:06.825Z,102168.09
2023-05-24T02:06:33.425Z,102194.59
2023-05-24T02:09:00.125Z,102220.97
2023-05-24T02:11:27.628Z,102178.16
2023-05-24T02:13:54.474Z,102205.44
2023-05-24T02:16:24.676Z,102170.19
2023-05-24T02:18:51.705Z,102188.31
2023-05-24T02:21:18.854Z,102172.91
2023-05-24T02:23:46.501Z,102220.13
2023-05-24T02:26:13.881Z,102211.06
2023-05-24T02:28:40.742Z,102191.78
2023-05-24T02:31:08.481Z,102087.09
2023-05-24T02:33:36.760Z,102194.59
2023-05-24T02:36:04.427Z,102197.91
2023-05-24T02:38:31.963Z,102178.16
2023-05-24T02:40:58.667Z,102216.03
2023-05-24T02:43:26.102Z,102207.53
2023-05-24T02:45:53.769Z,102205.81
2023-05-24T02:48:20.447Z,102224.13
2023-05-24T02:50:47.028Z,102196.19
2023-05-24T02:53:13.718Z,102182.75
2023-05-24T02:55:40.517Z,102206.25
2023-05-24T02:58:08.301Z,102119.41
2023-05-24T03:00:37.105Z,102208.97
2023-05-24T03:03:03.979Z,102185.56
2023-05-24T03:05:31.972Z,102212.94
2023-05-24T03:07:58.651Z,102212.59
2023-05-24T03:10:25.259Z,102057.19
2023-05-24T03:12:51.908Z,102171.56
2023-05-24T03:15:18.848Z,102117.72
2023-05-24T03:17:46.874Z,102198.97
2023-05-24T03:20:13.599Z,102181.19
2023-05-24T03:22:40.298Z,102215.28
2023-05-24T03:25:08.753Z,102199.31
2023-05-24T03:27:36.601Z,102168.47
2023-05-24T03:30:03.679Z,102155.78
2023-05-24T03:32:35.169Z,102170.47
2023-05-24T03:35:02.675Z,102089.91
2023-05-24T03:37:29.457Z,102152.16
2023-05-24T03:39:56.070Z,102203.13
2023-05-24T03:42:42.569Z,102163.22
2023-05-24T03:45:10.677Z,102193.69
2023-05-24T03:47:39.145Z,102168.13
2023-05-24T03:50:06.308Z,102094.16
2023-05-24T03:52:32.947Z,102168.47
2023-05-24T03:54:59.540Z,102199.50
2023-05-24T03:57:26.633Z,102179.72
2023-05-24T03:59:53.391Z,102189.31
2023-05-24T04:02:20.226Z,102158.56
2023-05-24T04:04:46.961Z,102160.47
2023-05-24T04:07:15.412Z,102141.22
2023-05-24T04:09:43.128Z,102020.06
2023-05-24T04:12:11.617Z,102203.22
2023-05-24T04:14:41.552Z,102183.97
2023-05-24T04:17:08.624Z,102159.97
2023-05-24T04:19:35.300Z,102203.13
2023-05-24T04:22:01.972Z,102184.66
2023-05-24T04:24:28.901Z,102086.59
2023-05-24T04:26:55.683Z,102183.84
2023-05-24T04:29:26.652Z,102190.03
2023-05-24T04:31:53.441Z,102086.31
2023-05-24T04:34:22.206Z,102164.72
2023-05-24T04:36:52.405Z,102198.47
2023-05-24T04:39:19.021Z,102178.47
2023-05-24T04:41:45.653Z,102185.13
2023-05-24T04:44:12.293Z,102217.28
2023-05-24T04:46:38.973Z,102225.59
2023-05-24T04:49:05.973Z,102180.47
2023-05-24T04:51:33.104Z,102201.31
2023-05-24T04:54:01.412Z,102191.22
2023-05-24T04:56:28.126Z,102126.63
2023-05-24T04:58:54.735Z,102203.22
2023-05-24T05:01:21.653Z,102207.38
2023-05-24T05:03:48.354Z,102202.53
2023-05-24T05:06:15.324Z,102217.47
2023-05-24T05:08:41.997Z,102187.41
2023-05-24T05:11:08.672Z,102196.91
2023-05-24T05:13:35.595Z,102187.66
2023-05-24T05:16:02.616Z,102232.19
2023-05-24T05:18:29.308Z,102179.31
2023-05-24T05:20:55.930Z,102193.47
2023-05-24T05:23:22.663Z,102108.94
2023-05-24T05:25:49.341Z,102209.03
2023-05-24T05:28:15.954Z,102118.59
2023-05-24T05:30:42.780Z,102230.44
2023-05-24T05:33:09.799Z,102130.50
2023-05-24T05:35:36.722Z,102179.22
2023-05-24T05:38:03.640Z,102194.47
2023-05-24T05:40:30.401Z,102206.56
2023-05-24T05:42:57.032Z,102204.63
2023-05-24T05:45:24.508Z,102187.63
2023-05-24T05:47:51.378Z,102216.50
2023-05-24T05:50:18.077Z,102203.19
2023-05-24T05:52:44.716Z,102190.41
2023-05-24T05:55:12.309Z,102187.50
2023-05-24T05:57:39.038Z,102190.81
2023-05-24T06:00:06.377Z,102205.28
2023-05-24T06:02:38.666Z,102193.84
2023-05-24T06:05:05.900Z,102188.91
2023-05-24T06:07:37.538Z,102231.47
2023-05-24T06:10:04.505Z,102138.84
2023-05-24T06:12:31.133Z,102188.94
2023-05-24T06:14:58.504Z,102205.22
2023-05-24T06:17:25.182Z,102228.47
2023-05-24T06:19:53.754Z,102223.94
2023-05-24T06:22:21.632Z,102234.22
2023-05-24T06:24:49.192Z,102154.78
2023-05-24T06:27:15.896Z,102128.06
2023-05-24T06:29:42.459Z,102223.88
2023-05-24T06:32:09.090Z,102236.19
2023-05-24T06:34:35.638Z,102221.69
2023-05-24T06:37:02.543Z,102226.97
2023-05-24T06:39:29.152Z,102230.56
2023-05-24T06:41:55.973Z,102170.84
2023-05-24T06:44:30.931Z,102239.34
2023-05-24T06:46:57.560Z,102247.47
2023-05-24T06:49:24.148Z,102247.34
2023-05-24T06:51:50.729Z,102246.16
2023-05-24T06:54:17.402Z,102239.44
2023-05-24T06:56:43.940Z,102207.03
2023-05-24T06:59:10.627Z,102244.34
2023-05-24T07:01:39.828Z,102155.56
2023-05-24T07:04:06.571Z,102250.94
2023-05-24T07:06:33.248Z,102250.97
2023-05-24T07:09:01.788Z,102186.28
2023-05-24T07:11:28.726Z,102242.03
2023-05-24T07:13:55.348Z,102243.41
2023-05-24T07:16:21.887Z,102244.09
2023-05-24T07:18:48.470Z,102230.53
2023-05-24T07:21:15.190Z,102242.53
2023-05-24T07:23:41.770Z,102166.81
2023-05-24T07:26:09.118Z,102252.06
2023-05-24T07:28:38.786Z,102228.50
2023-05-24T07:31:05.572Z,102247.38
2023-05-24T07:33:32.173Z,102252.78
2023-05-24T07:35:58.747Z,102240.25
2023-05-24T07:38:25.308Z,102251.97
2023-05-24T07:40:52.797Z,102158.25
2023-05-24T07:43:19.771Z,102253.75
2023-05-24T07:45:46.417Z,102168.50
2023-05-24T07:48:13.107Z,102254.63
2023-05-24T07:50:39.752Z,102257.38
2023-05-24T07:53:07.371Z,102240.41
2023-05-24T07:55:34.024Z,102216.53
2023-05-24T07:58:00.677Z,102180.09
2023-05-24T08:00:27.749Z,102217.09
2023-05-24T08:02:54.357Z,102185.63
2023-05-24T08:05:21.017Z,102220.41
2023-05-24T08:07:48.077Z,102219.31
2023-05-24T08:10:14.674Z,102228.91
2023-05-24T08:12:42.312Z,102240.47
2023-05-24T08:15:09.321Z,102225.41
2023-05-24T08:17:36.587Z,102215.84
2023-05-24T08:20:06.678Z,102216.97
2023-05-24T08:22:33.734Z,102145.31
2023-05-24T08:25:00.367Z,102191.22
2023-05-24T08:27:28.845Z,102168.81
2023-05-24T08:29:57.112Z,102158.06
2023-05-24T08:32:23.843Z,102168.81
2023-05-24T08:34:50.467Z,102217.31
2023-05-24T08:37:20.494Z,102220.03
2023-05-24T08:39:47.084Z,102209.16
2023-05-24T08:42:14.346Z,102217.25
2023-05-24T08:44:47.816Z,102236.03
2023-05-24T08:47:15.375Z,102155.94
2023-05-24T08:49:42.999Z,102164.91
2023-05-24T08:52:11.580Z,102232.50
2023-05-24T08:54:38.687Z,102216.34
2023-05-24T08:57:06.664Z,102221.78
2023-05-24T08:59:33.485Z,102150.84
2023-05-24T09:02:01.513Z,102196.38
2023-05-24T09:04:29.084Z,102203.47
2023-05-24T09:06:56.780Z,102219.66
2023-05-24T09:09:28.716Z,102185.41
2023-05-24T09:11:59.194Z,102214.91
2023-05-24T09:14:25.846Z,102202.31
2023-05-24T09:16:52.518Z,102205.31
2023-05-24T09:19:20.078Z,102149.97
2023-05-24T09:21:49.451Z,102204.72
2023-05-24T09:24:16.537Z,102225.28
2023-05-24T09:26:43.082Z,102220.53
2023-05-24T09:29:09.706Z,102204.28
2023-05-24T09:31:39.030Z,102222.94
2023-05-24T09:34:14.608Z,102146.44
2023-05-24T09:36:43.105Z,102211.78
2023-05-24T09:39:11.441Z,102182.19
2023-05-24T09:41:38.817Z,102219.97
2023-05-24T09:44:05.827Z,102218.13
2023-05-24T09:46:38.221Z,102176.50
2023-05-24T09:49:06.699Z,102227.59
2023-05-24T09:51:38.266Z,102223.91
2023-05-24T09:54:05.726Z,102222.91
2023-05-24T09:56:35.809Z,102213.59
2023-05-24T09:59:08.363Z,102201.94
2023-05-24T10:01:36.252Z,102217.28
2023-05-24T10:04:09.339Z,102234.50
2023-05-24T10:06:38.520Z,102209.34
2023-05-24T10:09:06.581Z,102238.91
2023-05-24T10:11:36.001Z,102208.31
2023-05-24T10:14:05.676Z,102231.63
2023-05-24T10:16:32.726Z,102236.03
2023-05-24T10:18:59.691Z,102242.34
2023-05-24T10:21:31.592Z,102222.47
2023-05-24T10:24:02.191Z,102233.28
2023-05-24T10:26:32.663Z,102242.22
2023-05-24T10:29:06.663Z,102233.03
2023-05-24T10:31:36.613Z,102231.19
2023-05-24T10:34:08.405Z,102234.84
2023-05-24T10:36:37.003Z,102161.03
2023-05-24T10:39:04.255Z,102213.31
2023-05-24T10:41:39.168Z,102200.88
2023-05-24T10:44:11.086Z,102229.81
2023-05-24T10:47:08.535Z,102234.56
2023-05-24T10:49:36.020Z,102232.97
2023-05-24T10:52:08.613Z,102162.28
2023-05-24T10:54:36.880Z,102230.88
2023-05-24T10:57:04.682Z,102204.06
2023-05-24T10:59:39.441Z,102209.53
2023-05-24T11:02:16.489Z,102220.38
2023-05-24T11:04:46.897Z,102197.03
2023-05-24T11:07:15.566Z,102071.19
2023-05-24T11:10:02.997Z,102222.25
2023-05-24T11:12:34.532Z,102216.03
2023-05-24T11:15:03.229Z,102211.41
2023-05-24T11:17:29.803Z,102221.41
2023-05-24T11:19:56.858Z,102213.47
2023-05-24T11:22:26.990Z,102202.91
2023-05-24T11:24:53.748Z,102213.75
2023-05-24T11:27:20.614Z,102206.19
2023-05-24T11:29:48.707Z,102209.63
2023-05-24T11:32:21.098Z,102204.75
2023-05-24T11:34:47.953Z,102194.81
2023-05-24T11:37:17.714Z,102190.56
2023-05-24T11:39:51.101Z,102188.75
2023-05-24T11:42:17.809Z,102173.47
2023-05-24T11:44:44.503Z,102188.66
2023-05-24T11:47:13.106Z,102195.25
2023-05-24T11:49:39.665Z,102176.34
2023-05-24T11:52:07.373Z,102092.47
2023-05-24T11:57:02.114Z,102164.16
2023-05-24T12:02:04.322Z,102193.44
2023-05-24T12:04:33.017Z,102101.59
2023-05-24T12:07:00.157Z,102106.94
2023-05-24T12:09:27.685Z,102162.81
2023-05-24T12:11:55.354Z,102156.78
2023-05-24T12:14:32.640Z,102173.13
2023-05-24T12:17:00.805Z,102175.56
2023-05-24T12:19:36.625Z,102102.38
2023-05-24T12:22:08.020Z,102171.06
2023-05-24T12:24:35.227Z,102187.94
2023-05-24T12:27:06.582Z,102167.22
2023-05-24T12:29:35.690Z,102167.56
2023-05-24T12:32:03.050Z,102177.13
2023-05-24T12:34:29.763Z,102150.88
2023-05-24T12:36:56.668Z,102170.94
2023-05-24T12:39:30.896Z,102144.72
2023-05-24T12:41:59.414Z,102166.78
2023-05-24T12:44:34.967Z,102100.03
2023-05-24T12:47:03.495Z,102152.50
2023-05-24T12:49:31.841Z,102089.66
2023-05-24T12:51:58.866Z,102163.41
2023-05-24T12:54:27.362Z,102143.34
2023-05-24T12:56:56.625Z,102155.41
2023-05-24T12:59:24.322Z,102077.72
2023-05-24T13:01:51.941Z,102154.00
2023-05-24T13:04:20.953Z,102155.88
2023-05-24T13:06:48.711Z,102160.22
2023-05-24T13:09:18.109Z,102081.50
2023-05-24T13:11:45.486Z,102132.09
2023-05-24T13:14:12.723Z,102061.47
2023-05-24T13:16:39.729Z,102076.50
2023-05-24T13:19:06.781Z,102093.59
2023-05-24T13:21:33.649Z,102152.50
2023-05-24T13:24:00.599Z,102120.88
2023-05-24T13:26:27.585Z,102150.81
2023-05-24T13:29:26.746Z,102155.75
2023-05-24T13:31:41.434Z,102167.78
2023-05-24T13:34:10.249Z,102158.94
2023-05-24T13:36:37.969Z,102131.13
2023-05-24T13:41:35.588Z,102139.19
2023-05-24T13:44:02.596Z,102073.72
2023-05-24T13:46:29.687Z,102147.28
2023-05-24T13:48:56.949Z,102085.34
2023-05-24T13:51:24.248Z,102090.69
2023-05-24T13:53:51.017Z,102142.78
2023-05-24T13:56:17.665Z,102161.59
2023-05-24T13:58:44.562Z,102137.19
2023-05-24T14:01:11.430Z,102164.03
2023-05-24T14:03:40.233Z,102167.47
2023-05-24T14:06:08.070Z,102175.47
2023-05-24T14:08:35.129Z,102178.00
2023-05-24T14:11:01.783Z,102174.34
2023-05-24T14:15:57.893Z,102139.19
2023-05-24T14:18:24.590Z,102075.38
2023-05-24T14:20:51.224Z,102171.53
2023-05-24T14:23:18.221Z,102161.66
2023-05-24T14:25:46.771Z,102148.16
2023-05-24T14:28:13.466Z,102161.66
2023-05-24T14:30:40.074Z,102170.63
2023-05-24T14:33:08.092Z,102092.47
2023-05-24T14:35:38.251Z,102093.31
2023-05-24T14:38:10.035Z,102172.44
2023-05-24T14:40:39.017Z,102169.75
2023-05-24T14:43:07.237Z,102181.44
2023-05-24T14:45:33.931Z,102144.63
2023-05-24T14:48:00.965Z,102097.00
2023-05-24T14:50:27.908Z,102097.09
2023-05-24T14:52:55.634Z,102161.75
2023-05-24T14:55:22.738Z,102178.78
2023-05-24T14:57:49.471Z,102158.06
2023-05-24T15:00:18.516Z,102184.97
2023-05-24T15:02:46.574Z,102178.66
2023-05-24T15:05:13.463Z,102177.75
2023-05-24T15:07:40.078Z,102178.63
2023-05-24T15:10:07.056Z,102182.25
2023-05-24T15:12:33.694Z,102096.97
2023-05-24T15:15:00.320Z,102178.78
2023-05-24T15:17:26.942Z,102179.66
2023-05-24T15:19:54.254Z,102086.19
2023-05-24T15:22:21.026Z,102182.38
2023-05-24T15:24:47.607Z,102173.44
2023-05-24T15:27:14.154Z,102162.72
2023-05-24T15:29:40.864Z,102180.91
2023-05-24T15:32:07.463Z,102173.06
2023-05-24T15:34:34.035Z,102084.47
2023-05-24T15:37:00.610Z,102177.78
2023-05-24T15:39:27.202Z,102034.16
2023-05-24T15:41:53.863Z,102147.09
2023-05-24T15:44:21.294Z,102119.25
2023-05-24T15:46:47.904Z,102169.56
2023-05-24T15:49:14.462Z,102181.28
2023-05-24T15:54:10.682Z,102179.59
2023-05-24T15:56:37.491Z,102179.59
2023-05-24T15:59:04.102Z,102084.47
2023-05-24T16:01:30.774Z,102174.22
2023-05-24T16:03:57.422Z,102159.78
2023-05-24T16:06:24.064Z,102164.16
2023-05-24T16:08:50.768Z,102164.97
2023-05-24T16:11:18.696Z,102153.19
2023-05-24T16:13:46.215Z,102182.63
2023-05-24T16:16:12.801Z,102187.88
2023-05-24T16:18:39.413Z,102182.41
2023-05-24T16:21:06.673Z,102180.50
2023-05-24T16:23:33.223Z,102157.09
2023-05-24T16:25:59.855Z,102152.56
2023-05-24T16:28:26.834Z,102148.19
2023-05-24T16:30:57.290Z,102079.03
2023-05-24T16:33:25.332Z,102171.53
2023-05-24T16:35:55.679Z,102136.44
2023-05-24T16:38:23.697Z,102145.53
2023-05-24T16:40:51.330Z,102155.66
2023-05-24T16:43:18.224Z,102140.59
2023-05-24T16:45:45.398Z,102147.03
2023-05-24T16:48:12.739Z,102065.63
2023-05-24T16:50:39.481Z,102151.78
2023-05-24T16:53:06.803Z,102139.03
2023-05-24T16:55:33.563Z,102117.56
2023-05-24T16:58:00.211Z,102133.75
2023-05-24T17:00:34.205Z,102140.03
2023-05-24T17:03:00.997Z,102064.69
2023-05-24T17:05:27.851Z,102118.25
2023-05-24T17:07:54.927Z,102135.47
2023-05-24T17:10:21.757Z,102140.13
2023-05-24T17:12:49.230Z,102128.47
2023-05-24T17:15:15.940Z,102132.88
2023-05-24T17:17:42.700Z,102139.94
2023-05-24T17:20:09.974Z,102131.78
2023-05-24T17:22:36.775Z,102144.22
2023-05-24T17:25:04.290Z,102115.38
2023-05-24T17:27:31.586Z,102146.72
2023-05-24T17:29:58.263Z,102137.59
2023-05-24T17:32:24.875Z,102125.28
2023-05-24T17:34:51.637Z,102128.19
2023-05-24T17:37:18.278Z,102131.09
2023-05-24T17:39:45.005Z,102137.31
2023-05-24T17:42:11.632Z,102154.31
2023-05-24T17:44:38.252Z,102163.03
2023-05-24T17:47:05.081Z,102151.09
2023-05-24T17:49:32.439Z,102140.97
2023-05-24T17:52:00.709Z,102153.38
2023-05-24T17:54:27.876Z,102151.41
2023-05-24T17:56:54.624Z,102106.28
2023-05-24T17:59:21.428Z,102153.06
2023-05-24T18:01:48.135Z,102141.25
2023-05-24T18:04:16.128Z,102157.56
2023-05-24T18:06:42.824Z,102150.31
2023-05-24T18:09:09.859Z,102159.97
2023-05-24T18:11:36.700Z,102107.72
2023-05-24T18:14:03.922Z,101998.84
2023-05-24T18:16:31.500Z,102171.91
2023-05-24T18:18:58.338Z,102138.72
2023-05-24T18:21:25.050Z,102154.91
2023-05-24T18:23:51.607Z,102156.81
2023-05-24T18:26:18.264Z,102181.22
2023-05-24T18:28:44.979Z,102175.72
2023-05-24T18:31:12.107Z,102163.91
2023-05-24T18:33:39.158Z,102168.16
2023-05-24T18:36:06.359Z,102182.34
2023-05-24T18:38:36.798Z,102167.28
2023-05-24T18:41:06.028Z,102190.63
2023-05-24T18:43:33.417Z,102193.38
2023-05-24T18:46:00.002Z,102177.22
2023-05-24T18:48:26.764Z,102170.84
2023-05-24T18:50:53.941Z,102125.31
2023-05-24T18:53:20.586Z,102194.09
2023-05-24T18:55:47.431Z,102170.22
2023-05-24T18:58:15.032Z,102167.94
2023-05-24T19:00:41.735Z,102195.31
2023-05-24T19:03:11.920Z,102211.03
2023-05-24T19:05:42.557Z,102176.38
2023-05-24T19:08:10.723Z,102163.13
2023-05-24T19:10:37.311Z,102169.88
2023-05-24T19:13:04.053Z,102189.22
2023-05-24T19:15:30.711Z,102200.47
2023-05-24T19:17:57.998Z,102177.59
2023-05-24T19:20:24.896Z,102182.53
2023-05-24T19:22:51.807Z,102209.28
2023-05-24T19:25:19.312Z,102217.75
2023-05-24T19:27:58.433Z,102199.34
2023-05-24T19:30:26.987Z,102231.31
2023-05-24T19:32:53.744Z,102224.56
2023-05-24T19:35:20.392Z,102198.78
2023-05-24T19:37:47.269Z,102239.13
2023-05-24T19:40:13.850Z,102131.47
2023-05-24T19:42:40.555Z,102187.16
2023-05-24T19:45:09.313Z,102218.34
2023-05-24T19:47:35.980Z,102137.63
2023-05-24T19:50:03.830Z,102238.41
2023-05-24T19:52:30.492Z,102150.56
2023-05-24T19:54:57.280Z,102211.72
2023-05-24T19:57:24.077Z,102231.13
2023-05-24T19:59:50.722Z,102116.28
2023-05-24T20:02:17.270Z,102153.88
2023-05-24T20:04:44.124Z,102248.44
2023-05-24T20:07:11.300Z,102241.00
2023-05-24T20:09:38.149Z,102219.50
2023-05-24T20:12:05.013Z,102180.47
2023-05-24T20:14:31.894Z,102255.44
2023-05-24T20:16:59.376Z,102215.91
2023-05-24T20:19:27.143Z,102237.28
2023-05-24T20:21:54.119Z,102235.25
2023-05-24T20:24:20.870Z,102227.81
2023-05-24T20:26:47.515Z,102272.78
2023-05-24T20:29:14.232Z,102248.25
2023-05-24T20:31:41.327Z,102275.88
2023-05-24T20:34:08.205Z,102247.81
2023-05-24T20:36:34.859Z,102254.59
2023-05-24T20:39:01.507Z,102267.91
2023-05-24T20:41:30.417Z,102179.22
2023-05-24T20:43:57.099Z,102253.84
2023-05-24T20:46:23.928Z,102188.63
2023-05-24T20:48:51.553Z,102278.81
2023-05-24T20:51:19.291Z,102277.75
2023-05-24T20:53:46.761Z,102277.41
2023-05-24T20:56:13.559Z,102277.41
2023-05-24T20:58:41.442Z,102224.84
2023-05-24T21:01:08.683Z,102271.63
2023-05-24T21:03:35.611Z,102265.13
2023-05-24T21:06:02.698Z,102253.75
2023-05-24T21:08:29.407Z,102187.75
2023-05-24T21:10:56.504Z,102254.47
2023-05-24T21:13:25.336Z,102259.66
2023-05-24T21:15:52.092Z,102262.25
2023-05-24T21:18:18.824Z,102300.75
2023-05-24T21:20:45.848Z,102301.53
2023-05-24T21:23:13.514Z,102294.16
2023-05-24T21:25:40.240Z,102275.00
2023-05-24T21:28:06.941Z,102301.94
2023-05-24T21:30:33.584Z,102261.06
2023-05-24T21:33:00.297Z,102211.84
2023-05-24T21:35:27.753Z,102288.38
2023-05-24T21:37:54.459Z,102215.06
2023-05-24T21:40:21.079Z,102303.38
2023-05-24T21:42:47.722Z,102215.03
2023-05-24T21:45:14.469Z,102303.47
2023-05-24T21:47:42.444Z,102296.66
2023-05-24T21:50:09.571Z,102219.41
2023-05-24T21:52:36.272Z,102202.84
2023-05-24T21:55:03.042Z,102338.13
2023-05-24T21:57:29.642Z,102331.53
2023-05-24T21:59:56.349Z,102319.41
2023-05-24T22:02:22.985Z,102332.94
2023-05-24T22:04:49.676Z,102219.63
2023-05-24T22:07:16.302Z,102315.97
2023-05-24T22:09:42.881Z,102311.16
2023-05-24T22:12:09.652Z,102216.03
2023-05-24T22:14:36.295Z,102222.94
2023-05-24T22:17:02.936Z,102321.41
2023-05-24T22:19:40.126Z,102241.25
2023-05-24T22:22:10.336Z,102347.06
2023-05-24T22:24:36.985Z,102342.38
2023-05-24T22:27:03.824Z,102356.53
2023-05-24T22:29:30.666Z,102325.50
2023-05-24T22:31:57.401Z,102335.56
2023-05-24T22:34:28.655Z,102335.97
2023-05-24T22:36:55.539Z,102317.44
2023-05-24T22:39:22.175Z,102350.81
2023-05-24T22:41:49.282Z,102360.47
2023-05-24T22:44:16.695Z,102316.81
2023-05-24T22:46:43.510Z,102324.94
2023-05-24T22:49:13.167Z,102332.41
2023-05-24T22:51:44.135Z,102333.53
2023-05-24T22:54:11.731Z,102343.63
2023-05-24T22:56:38.911Z,102264.50
2023-05-24T22:59:06.434Z,102269.94
2023-05-24T23:01:33.730Z,102344.06
2023-05-24T23:04:15.906Z,102316.03
2023-05-24T23:06:47.196Z,102247.25
2023-05-24T23:09:13.845Z,102350.06
2023-05-24T23:11:42.866Z,102343.63
2023-05-24T23:14:11.116Z,102365.53
2023-05-24T23:16:45.490Z,102360.22
2023-05-24T23:19:18.254Z,102336.66
2023-05-24T23:21:45.546Z,102346.00
2023-05-24T23:24:14.489Z,102322.03
2023-05-24T23:26:42.052Z,102338.75
2023-05-24T23:29:09.295Z,102329.13
2023-05-24T23:31:36.209Z,102350.44
2023-05-24T23:34:03.924Z,102352.94
2023-05-24T23:36:30.463Z,102340.25
2023-05-24T23:38:57.128Z,102324.00
2023-05-24T23:41:23.733Z,102350.13
2023-05-24T23:43:52.290Z,102335.00
2023-05-24T23:46:19.277Z,102340.56
2023-05-24T23:48:46.168Z,102332.16
2023-05-24T23:51:13.029Z,102364.91
2023-05-24T23:53:39.763Z,102369.81
2023-05-24T23:56:06.507Z,102339.41
2023-05-24T23:58:33.898Z,102353.59
